Aérodrome Morin - Védrines

LFDB · Tarn-et-Garonne, Occitanie, França

História da METAR LFDB · Aérodrome Morin - Védrines

Abaixo você vê METARs dos últimos dias. Selecione um ano para navegar pelos METARs mais antigos, a partir do ano 2007.

26 de novembro de 2022

Hora Código Clima Temp. Visibilidade Tecto Vento METAR/SPECI
21:00
L
5 °C 500 m - 130° 130° 1 kt METAR LFBO 262000Z AUTO 13001KT 0600 0500 R14R/1200U R32L/0600N R14L/P2000U R32R/1100U FG VV/// 05/04 Q1026 TEMPO 0300
21:00
L
5 °C 500 m - 130° 130° 1 kt METAR LFBO 262000Z AUTO 13001KT 0600 0500 R14R/1200U R32L/0600N R14L/P2000U R32R/1100U FG VV/// 05/04 Q1026 TEMPO 0300
20:30
L
5 °C 350 m - 090° 090° 2 kt METAR LFBO 261930Z AUTO 09002KT 0400 0350 R14R/0900U R32L/0450D R14L/0450D R32R/0400N FG VV/// 05/04 Q1026 TEMPO 0300
20:00
I
7 °C 3,2 km 20.000 ft 030° 030° 2 kt METAR LFBO 261900Z AUTO 03002KT 3200 R14L/1100U R32R/0800U BR FEW001 BKN200 07/06 Q1027 TEMPO 0300 FG VV///
19:30
M
7 °C 5 km - 050° 050° 2 kt METAR LFBO 261830Z AUTO 05002KT 5000 BR NSC 07/06 Q1027 TEMPO 0300 FG VV///
19:00
V
8 °C 10 km+ - 050° 050° 3 kt METAR LFBO 261800Z AUTO 05003KT CAVOK 08/07 Q1027 TEMPO 4000 BR
18:30
V
9 °C 10 km+ 16.000 ft 030° 030° 3 kt METAR LFBO 261730Z AUTO 03003KT 9999 FEW008 OVC160 09/07 Q1027 TEMPO 4000 BR
18:00
V
10 °C 10 km+ 16.000 ft 040° 040° 2 kt METAR LFBO 261700Z AUTO 04002KT 9999 FEW008 OVC160 10/07 Q1027 TEMPO 4000 BR
17:30
V
10 °C 10 km+ 16.000 ft Var Var 2 kt METAR LFBO 261630Z AUTO VRB02KT 9999 FEW008 OVC160 10/07 Q1027 TEMPO 4000 BR
17:00
V
11 °C 10 km+ - 090° 090° 3 kt METAR LFBO 261600Z AUTO 09003KT CAVOK 11/07 Q1027 NOSIG
16:30
V
11 °C 10 km+ - 100° 100° 4 kt METAR LFBO 261530Z AUTO 10004KT CAVOK 11/07 Q1027 NOSIG
16:00
V
10 °C 10 km+ - 100° 100° 3 kt METAR LFBO 261500Z AUTO 10003KT 060V130 CAVOK 10/07 Q1027 NOSIG
15:30
V
10 °C 10 km+ - 040° 040° 3 kt METAR LFBO 261430Z AUTO 04003KT 010V080 CAVOK 10/08 Q1028 NOSIG
15:00
V
10 °C 10 km+ - Var Var 3 kt METAR LFBO 261400Z AUTO VRB03KT CAVOK 10/08 Q1028 NOSIG
14:30
V
9 °C 10 km+ 18.000 ft 030° 030° 4 kt METAR LFBO 261330Z AUTO 03004KT 360V090 9999 SCT006 OVC180 09/08 Q1028 NOSIG
14:00
L
8 °C 10 km+ 400 ft 070° 070° 5 kt METAR LFBO 261300Z AUTO 07005KT 040V110 9999 OVC004 08/08 Q1029 TEMPO 3000 BR BECMG NSC
13:30
L
8 °C 6 km 300 ft 080° 080° 6 kt METAR LFBO 261230Z AUTO 08006KT 050V110 6000 OVC003 08/08 Q1029 TEMPO 3000 BR BECMG NSC
13:00
L
8 °C 3,6 km 200 ft 080° 080° 5 kt METAR LFBO 261200Z AUTO 08005KT 3600 BR OVC002 08/07 Q1029 TEMPO 0500 FG VV///
12:30
L
8 °C 4,7 km 300 ft 070° 070° 4 kt METAR LFBO 261130Z AUTO 07004KT 030V120 4700 BR OVC003 08/07 Q1030 BECMG CAVOK
12:00
L
7 °C 6 km 300 ft Var Var 3 kt METAR LFBO 261100Z AUTO VRB03KT 6000 OVC003 07/07 Q1030 TEMPO 3000 BR
11:30
L
7 °C 7 km 300 ft Var Var 3 kt METAR LFBO 261030Z AUTO VRB03KT 7000 OVC003 07/07 Q1031 TEMPO 3000 BR
11:00
L
7 °C 8 km 400 ft 120° 120° 3 kt METAR LFBO 261000Z AUTO 12003KT 080V160 8000 OVC004 07/06 Q1031 TEMPO 3000 BR
10:30
I
6 °C 10 km+ 500 ft 120° 120° 5 kt METAR LFBO 260930Z AUTO 12005KT 9999 OVC005 06/06 Q1031 TEMPO 3000 BR
10:00
I
6 °C 10 km+ 500 ft 140° 140° 6 kt METAR LFBO 260900Z AUTO 14006KT 9999 OVC005 06/05 Q1031 TEMPO 3000 BR VV///
09:30
I
5 °C 10 km+ 500 ft 160° 160° 3 kt METAR LFBO 260830Z AUTO 16003KT 140V210 9999 OVC005 05/05 Q1032 TEMPO 3000 BR VV///
09:00
I
4 °C 10 km+ 500 ft 180° 180° 1 kt METAR LFBO 260800Z AUTO 18001KT 9999 BKN005 BKN180 OVC210 04/04 Q1032 TEMPO 0400 FG VV///
08:30
I
4 °C 4,3 km 18.000 ft 130° 130° 3 kt METAR LFBO 260730Z AUTO 13003KT 9999 4300 -RA SCT006 BKN180 BKN200 04/04 Q1031 TEMPO 0400 FG VV///
08:00
V
4 °C 9 km - 100° 100° 1 kt METAR LFBO 260700Z AUTO 10001KT 9000 NSC 04/04 Q1031 TEMPO 0400 FG VV///
07:30
M
3 °C 7 km 21.000 ft Var Var 2 kt METAR LFBO 260630Z AUTO VRB02KT 7000 FEW007 OVC210 03/03 Q1031 TEMPO 0400 FG VV///
07:00
I
3 °C 2,6 km - Var Var 2 kt METAR LFBO 260600Z AUTO VRB02KT 9999 2600 NSC 03/03 Q1031 TEMPO 0400 FG VV///
06:30
I
4 °C 2,1 km - 180° 180° 3 kt METAR LFBO 260530Z AUTO 18003KT 9999 2100 NSC 04/03 Q1030 TEMPO 0400 FG VV///
06:00
I
4 °C 4,9 km 22.000 ft 200° 200° 3 kt METAR LFBO 260500Z AUTO 20003KT 4900 BR FEW003 OVC220 04/03 Q1030 TEMPO 0400 FG VV///
05:30
I
4 °C 1,9 km - 180° 180° 2 kt METAR LFBO 260430Z AUTO 18002KT 7000 1900 FEW001 04/03 Q1030 TEMPO 0400 FG VV///
05:00
L
4 °C 1,2 km - 160° 160° 3 kt METAR LFBO 260400Z AUTO 16003KT 8000 1200 R14R/1800D R32L/P2000 R14L/P2000 R32R/P2000 FEW003 04/03 Q1030 TEMPO 0400 FG VV///
04:30
L
4 °C 550 m - 190° 190° 3 kt METAR LFBO 260330Z AUTO 19003KT 4700 0550 R14R/0700N R32L/P2000 R14L/P2000 R32R/P2000 BCFG NSC 04/03 Q1030 TEMPO 0400 FG VV///
04:00
L
4 °C 1,1 km - 200° 200° 3 kt METAR LFBO 260300Z AUTO 20003KT 4500 1100 R14R/1500D R32L/P2000 R14L/P2000 R32R/P2000 BR FEW002 04/03 Q1030 TEMPO 0400 FG VV///
03:30
L
4 °C 650 m - 190° 190° 3 kt METAR LFBO 260230Z AUTO 19003KT 2500 0650 R14R/1700D R32L/P2000 R14L/1300U R32R/P2000 BCFG FEW002 04/04 Q1030 TEMPO 0400 FG VV///
03:00
L
4 °C 1,3 km - 180° 180° 2 kt METAR LFBO 260200Z AUTO 18002KT 6000 1300 R14R/1300D R32L/P2000 R14L/P2000 R32R/P2000 NSC 04/04 Q1030 TEMPO 3000 BR OVC004
02:30
I
5 °C 1,9 km - 150° 150° 4 kt METAR LFBO 260130Z AUTO 15004KT 5000 1900 BR NSC 05/05 Q1030 TEMPO OVC004
02:00
I
5 °C 3,1 km - 170° 170° 3 kt METAR LFBO 260100Z AUTO 17003KT 9999 3100 NSC 05/05 Q1030 TEMPO 4000 BR
01:30
V
5 °C 10 km+ - 200° 200° 3 kt METAR LFBO 260030Z AUTO 20003KT CAVOK 05/05 Q1031 TEMPO 4000 BR
01:00
V
6 °C 10 km+ - 170° 170° 2 kt METAR LFBO 260000Z AUTO 17002KT CAVOK 06/05 Q1031 TEMPO 0700 FG VV///
00:30
V
6 °C 10 km+ - 170° 170° 4 kt METAR LFBO 252330Z AUTO 17004KT CAVOK 06/06 Q1031 TEMPO 0700 FG VV///
00:00
V
8 °C 10 km+ - 250° 250° 6 kt METAR LFBO 252300Z AUTO 25006KT CAVOK 08/06 Q1031 TEMPO 0700 FG VV///

25 de novembro de 2022

Hora Código Clima Temp. Visibilidade Tecto Vento METAR/SPECI
23:30
V
8 °C 10 km+ - 260° 260° 8 kt METAR LFBO 252230Z AUTO 26008KT CAVOK 08/07 Q1031 TEMPO 0700 FG VV///
23:00
V
8 °C 10 km+ - 260° 260° 9 kt METAR LFBO 252200Z AUTO 26009KT CAVOK 08/07 Q1030 BECMG 4000 BR
22:30
V
9 °C 10 km+ - 260° 260° 10 kt METAR LFBO 252130Z AUTO 26010KT CAVOK 09/07 Q1030 BECMG 4000 BR
22:00
V
9 °C 10 km+ - 270° 270° 10 kt METAR LFBO 252100Z AUTO 27010KT CAVOK 09/07 Q1030 BECMG 4000 BR
21:30
V
9 °C 10 km+ - 260° 260° 11 kt METAR LFBO 252030Z AUTO 26011KT CAVOK 09/08 Q1030 BECMG 4000 BR
21:00
V
9 °C 10 km+ - 270° 270° 11 kt METAR LFBO 252000Z AUTO 27011KT CAVOK 09/08 Q1029 NOSIG
20:30
V
9 °C 10 km+ - 270° 270° 11 kt METAR LFBO 251930Z AUTO 27011KT 9999 FEW038 SCT056 09/08 Q1029 NOSIG
20:00
V
9 °C 10 km+ - 270° 270° 10 kt METAR LFBO 251900Z AUTO 27010KT 9999 FEW039 09/08 Q1028 NOSIG
19:30
V
10 °C 10 km+ - 270° 270° 12 kt METAR LFBO 251830Z AUTO 27012KT 9999 FEW038/// ///CB 10/08 Q1028 BECMG NSC
19:00
V
10 °C 10 km+ 4.600 ft 270° 270° 13 kt METAR LFBO 251800Z AUTO 27013KT 9999 SCT039/// BKN046/// BKN056/// ///CB 10/08 Q1027 BECMG NSC
18:30
V
10 °C 10 km+ 5.200 ft 270° 270° 10 kt METAR LFBO 251730Z AUTO 27010KT 9999 SCT042/// OVC052/// //////CB 10/08 Q1027 BECMG NSC
18:00
V
10 °C 10 km+ 5.800 ft 270° 270° 11 kt METAR LFBO 251700Z AUTO 27011KT 9999 -RA FEW044/// BKN058/// OVC072/// ///CB 10/08 Q1026 NOSIG
17:30
V
11 °C 10 km+ - 270° 270° 14 kt METAR LFBO 251630Z AUTO 27014KT 9999 //////CB 11/08 Q1026 NOSIG
17:00
V
11 °C 10 km+ - 270° 270° 11 kt METAR LFBO 251600Z AUTO 27011KT 9999 FEW024 11/09 Q1026 TEMPO SCT025TCU
16:30
I
11 °C 3 km 6.200 ft 270° 270° 14 kt METAR LFBO 251530Z AUTO 27014KT 9999 3000 -RA FEW023/// BKN062/// BKN072/// ///TCU 11/09 Q1025 NOSIG
16:00
V
11 °C 10 km+ 3.500 ft 270° 270° 11 kt METAR LFBO 251500Z AUTO 27011KT 9999 SCT016/// SCT025/// BKN035/// //////TCU 11/09 Q1025 NOSIG
15:30
L
11 °C 1,3 km 5.200 ft 250° 250° 14 kt METAR LFBO 251430Z AUTO 25014KT 5000 1300 R14R/1600D R32L/P2000 R14L/1700D R32R/P2000 +RA BR FEW017/// SCT045/// OVC052/// //////TCU 11/09 Q1025 TEMPO NSW
15:00
V
11 °C 10 km+ 5.400 ft 250° 250° 12 kt METAR LFBO 251400Z AUTO 25012KT 9999 -RA FEW041 OVC054 11/09 Q1025 TEMPO 4000 SHRA SCT025TCU
14:30
V
11 °C 10 km+ 4.900 ft 260° 260° 13 kt METAR LFBO 251330Z AUTO 26013KT 9999 -RA FEW013/// SCT028/// OVC049/// //////TCU 11/09 Q1025 TEMPO 4000 SHRA BKN013 SCT030CB
14:00
M
11 °C 10 km+ 1.200 ft 260° 260° 12 kt METAR LFBO 251300Z AUTO 26012KT 9999 BKN012/// BKN041/// BKN049/// //////TCU 11/09 Q1025 TEMPO 4000 SHRA BKN013 SCT030CB
13:30
V
11 °C 10 km+ 5.200 ft 250° 250° 14 kt METAR LFBO 251230Z AUTO 25014KT 9999 -RA SCT013 SCT036 BKN052 11/09 Q1024 TEMPO 4000 SHRA BKN013 SCT030CB
13:00
V
11 °C 10 km+ - 250° 250° 12 kt METAR LFBO 251200Z AUTO 25012KT 9999 //////TCU 11/09 Q1024 TEMPO 4000 SHRA BKN013 SCT030CB
12:30
V
10 °C 10 km+ - 270° 270° 12 kt METAR LFBO 251130Z AUTO 27012KT 9999 -RA NSC 10/09 Q1024 TEMPO 4000 SHRA BKN013 SCT030CB
12:00
V
10 °C 10 km+ 5.600 ft 270° 270° 9 kt METAR LFBO 251100Z AUTO 27009KT 9999 -RA FEW011/// OVC056/// //////CB 10/10 Q1024 TEMPO 4000 SHRA BKN013 SCT030CB
11:30
M
10 °C 10 km+ 1.500 ft 290° 290° 10 kt METAR LFBO 251030Z AUTO 29010KT 9999 -RA SCT009/// BKN015/// BKN031/// //////TCU 10/10 Q1024 TEMPO 4000 SHRA BKN013 SCT030CB
11:00
M
10 °C 10 km+ 1.500 ft 290° 290° 10 kt METAR LFBO 251000Z AUTO 29010KT 9999 SCT008/// BKN015/// BKN020/// //////TCU 10/10 Q1023 TEMPO 4000 RA BKN009 SCT025TCU
10:30
M
10 °C 10 km+ 1.600 ft 290° 290° 10 kt METAR LFBO 250930Z AUTO 29010KT 9999 -RA FEW008/// BKN016/// BKN033/// //////TCU 10/10 Q1022 TEMPO 4000 RA BKN009 SCT025TCU
10:00
M
10 °C 10 km+ 1.300 ft 300° 300° 9 kt METAR LFBO 250900Z AUTO 30009KT 9999 -RA FEW008/// BKN013/// BKN018/// //////TCU 10/09 Q1022 TEMPO 4000 RA BKN009 SCT025TCU
09:30
I
10 °C 6 km 800 ft 270° 270° 10 kt METAR LFBO 250830Z AUTO 27010KT 6000 -RA BKN008/// BKN014/// BKN023/// //////TCU 10/09 Q1021 TEMPO 4000 RA
09:00
M
10 °C 10 km+ 2.200 ft 280° 280° 10 kt METAR LFBO 250800Z AUTO 28010KT 9999 -RADZ FEW010/// OVC022/// //////TCU 10/09 Q1021 TEMPO 4000 RA BKN009 SCT025TCU
08:30
M
10 °C 9 km 1.200 ft 290° 290° 6 kt METAR LFBO 250730Z AUTO 29006KT 9000 -RA BKN012/// BKN018/// BKN023/// //////CB 10/09 Q1020 TEMPO 4000 RA BKN009 SCT025TCU
08:00
I
8 °C 4,9 km 1.400 ft 200° 200° 6 kt METAR LFBO 250700Z AUTO 20006KT 9999 4900 -RA BKN014/// BKN030/// BKN043/// ///TCU 08/07 Q1019 TEMPO 4000 RA BKN009 SCT025TCU BECMG 28012KT
07:30
V
7 °C 10 km+ 7.600 ft 160° 160° 4 kt METAR LFBO 250630Z AUTO 16004KT 9999 FEW023/// SCT050/// BKN076/// //////TCU 07/07 Q1019 TEMPO 4000 RA BKN009 SCT025TCU BECMG 28012KT
07:00
M
7 °C 10 km+ 2.500 ft 170° 170° 3 kt METAR LFBO 250600Z AUTO 17003KT 9999 BKN025 BKN052 07/07 Q1019 TEMPO 4000 RA BKN009 SCT025TCU BECMG 28012KT
06:30
V
7 °C 10 km+ 7.800 ft 180° 180° 3 kt METAR LFBO 250530Z AUTO 18003KT 9999 FEW024 BKN078 07/06 Q1018 TEMPO 4000 RA BKN012 SCT025TCU BECMG 28012KT
06:00
V
7 °C 10 km+ - 190° 190° 4 kt METAR LFBO 250500Z AUTO 19004KT CAVOK 07/07 Q1018 TEMPO 4000 RA BKN012 SCT025TCU BECMG 28012KT
05:30
V
8 °C 10 km+ 6.000 ft 170° 170° 3 kt METAR LFBO 250430Z AUTO 17003KT 9999 FEW047 BKN060 OVC082 08/07 Q1018 TEMPO 4000 RA BKN012 SCT025TCU BECMG 28012KT
05:00
V
8 °C 10 km+ 8.000 ft 190° 190° 3 kt METAR LFBO 250400Z AUTO 19003KT 160V220 9999 FEW047 SCT070 OVC080 08/07 Q1018 BECMG 28012KT
04:30
V
8 °C 10 km+ - 190° 190° 5 kt METAR LFBO 250330Z AUTO 19005KT CAVOK 08/07 Q1018 BECMG 28012KT
04:00
V
7 °C 10 km+ - 190° 190° 3 kt METAR LFBO 250300Z AUTO 19003KT 160V220 CAVOK 07/07 Q1018 TEMPO 3000 BR
03:30
V
8 °C 10 km+ - 180° 180° 4 kt METAR LFBO 250230Z AUTO 18004KT CAVOK 08/08 Q1018 TEMPO 3000 BR
03:00
V
8 °C 10 km+ - Var Var 2 kt METAR LFBO 250200Z AUTO VRB02KT CAVOK 08/07 Q1018 TEMPO 3000 BR
02:30
M
7 °C 5 km - 180° 180° 4 kt METAR LFBO 250130Z AUTO 18004KT 5000 R14R/1300D BR NSC 07/07 Q1018 NOSIG
02:00
L
7 °C 1,3 km - 170° 170° 3 kt METAR LFBO 250100Z AUTO 17003KT 7000 1300 R14R/P2000 R32L/P2000 R14L/1700U R32R/P2000 NSC 07/07 Q1018 NOSIG
01:30
V
8 °C 9 km - 200° 200° 3 kt METAR LFBO 250030Z AUTO 20003KT 9000 NSC 08/07 Q1018 NOSIG
01:00
V
9 °C 10 km+ - 200° 200° 3 kt METAR LFBO 250000Z AUTO 20003KT CAVOK 09/08 Q1017 NOSIG
00:30
V
9 °C 10 km+ - Var Var 1 kt METAR LFBO 242330Z AUTO VRB01KT CAVOK 09/08 Q1017 NOSIG
00:00
V
9 °C 10 km+ - 320° 320° 3 kt METAR LFBO 242300Z AUTO 32003KT CAVOK 09/08 Q1017 NOSIG

24 de novembro de 2022

Hora Código Clima Temp. Visibilidade Tecto Vento METAR/SPECI
23:30
V
9 °C 10 km+ - Var Var 3 kt METAR LFBO 242230Z AUTO VRB03KT CAVOK 09/08 Q1017 NOSIG
23:00
V
10 °C 10 km+ - Var Var 2 kt METAR LFBO 242200Z AUTO VRB02KT CAVOK 10/08 Q1016 NOSIG
22:30
V
10 °C 10 km+ - Var 000° 0 kt METAR LFBO 242130Z AUTO 00000KT CAVOK 10/09 Q1016 NOSIG
22:00
V
10 °C 10 km+ 8.600 ft 140° 140° 3 kt METAR LFBO 242100Z AUTO 14003KT 9999 FEW012 BKN086 BKN140 10/09 Q1016 NOSIG
21:30
V
10 °C 10 km+ - 220° 220° 4 kt METAR LFBO 242030Z AUTO 22004KT CAVOK 10/08 Q1016 NOSIG
21:00
V
10 °C 10 km+ 17.000 ft 170° 170° 6 kt METAR LFBO 242000Z AUTO 17006KT 9999 FEW011 SCT140 BKN170 10/09 Q1015 NOSIG
20:30
V
10 °C 10 km+ - 160° 160° 9 kt METAR LFBO 241930Z AUTO 16009KT CAVOK 10/09 Q1015 NOSIG
20:00
V
11 °C 10 km+ 6.800 ft 180° 180° 5 kt METAR LFBO 241900Z AUTO 18005KT 9999 FEW046 BKN068 BKN090 11/10 Q1016 NOSIG
19:30
V
12 °C 10 km+ 7.800 ft Var Var 2 kt METAR LFBO 241830Z AUTO VRB02KT 9999 -RA FEW007 BKN078 OVC094 12/10 Q1016 NOSIG
19:00
V
12 °C 10 km+ - Var Var 1 kt METAR LFBO 241800Z AUTO VRB01KT 9999 -RADZ NSC 12/09 Q1016 TEMPO 4000 -RA
18:30
V
12 °C 10 km+ - Var 000° 0 kt METAR LFBO 241730Z AUTO 00000KT 9999 -RA //////TCU 12/09 Q1016 TEMPO 4000 -RA BKN020
18:00
V
13 °C 10 km+ - 090° 090° 2 kt METAR LFBO 241700Z AUTO 09002KT 9999 -RA ///TCU 13/09 Q1016 TEMPO 4000 -RA BKN020
17:30
V
13 °C 10 km+ - Var Var 1 kt METAR LFBO 241630Z AUTO VRB01KT 9999 -RA ///TCU 13/08 Q1016 TEMPO 4000 -RA BKN020
17:00
V
13 °C 10 km+ - 260° 260° 4 kt METAR LFBO 241600Z AUTO 26004KT 220V310 9999 //////TCU 13/09 Q1016 BECMG BKN040
16:30
V
13 °C 10 km+ - 170° 170° 6 kt METAR LFBO 241530Z AUTO 17006KT 140V210 CAVOK 13/08 Q1015 NOSIG
16:00
V
14 °C 10 km+ - Var Var 3 kt METAR LFBO 241500Z AUTO VRB03KT CAVOK 14/08 Q1015 NOSIG
15:30
V
14 °C 10 km+ - 120° 120° 6 kt METAR LFBO 241430Z AUTO 12006KT CAVOK 14/07 Q1015 NOSIG
15:00
V
14 °C 10 km+ - Var Var 3 kt METAR LFBO 241400Z AUTO VRB03KT CAVOK 14/07 Q1015 NOSIG
14:30
V
15 °C 10 km+ - 120° 120° 8 kt METAR LFBO 241330Z AUTO 12008KT CAVOK 15/07 Q1014 NOSIG
14:00
V
14 °C 10 km+ - 110° 110° 8 kt METAR LFBO 241300Z AUTO 11008KT 070V130 CAVOK 14/07 Q1014 NOSIG
13:30
V
14 °C 10 km+ - 110° 110° 3 kt METAR LFBO 241230Z AUTO 11003KT 070V140 CAVOK 14/07 Q1015 NOSIG
13:00
V
14 °C 10 km+ - 120° 120° 6 kt METAR LFBO 241200Z AUTO 12006KT CAVOK 14/07 Q1016 NOSIG
12:30
V
12 °C 10 km+ - 120° 120° 5 kt METAR LFBO 241130Z AUTO 12005KT CAVOK 12/07 Q1016 NOSIG
12:00
V
12 °C 10 km+ - 120° 120° 7 kt METAR LFBO 241100Z AUTO 12007KT CAVOK 12/07 Q1017 NOSIG
11:30
V
10 °C 10 km+ - 120° 120° 7 kt METAR LFBO 241030Z AUTO 12007KT CAVOK 10/07 Q1017 NOSIG
11:00
V
9 °C 10 km+ - 110° 110° 6 kt METAR LFBO 241000Z AUTO 11006KT CAVOK 09/06 Q1018 NOSIG

Nós e terceiros acompanhamos seu comportamento na internet em nosso site com cookies. Se você continuar, nós assumimos que você concorda com nosso política de cookies.